sensor_id;sensor_type;location;lat;lon;timestamp;pressure;altitude;pressure_sealevel;temperature;humidity
10688;BME280;5392;42.688;23.298;2024-01-30T00:01:10;96810.72;;;-1.57;63.37
10688;BME280;5392;42.688;23.298;2024-01-30T00:03:37;96812.25;;;-1.55;63.64
10688;BME280;5392;42.688;23.298;2024-01-30T00:06:05;96810.94;;;-1.62;63.50
10688;BME280;5392;42.688;23.298;2024-01-30T00:08:31;96814.44;;;-1.64;63.50
10688;BME280;5392;42.688;23.298;2024-01-30T00:10:56;96813.56;;;-1.63;63.26
10688;BME280;5392;42.688;23.298;2024-01-30T00:13:22;96816.88;;;-1.63;63.40
10688;BME280;5392;42.688;23.298;2024-01-30T00:15:49;96814.94;;;-1.58;63.01
10688;BME280;5392;42.688;23.298;2024-01-30T00:18:15;96816.00;;;-1.62;63.32
10688;BME280;5392;42.688;23.298;2024-01-30T00:20:40;96810.84;;;-1.60;63.58
10688;BME280;5392;42.688;23.298;2024-01-30T00:23:06;96815.41;;;-1.67;63.76
10688;BME280;5392;42.688;23.298;2024-01-30T00:25:31;96817.84;;;-1.65;63.46
10688;BME280;5392;42.688;23.298;2024-01-30T00:27:58;96820.38;;;-1.65;63.51
10688;BME280;5392;42.688;23.298;2024-01-30T00:30:24;96809.72;;;-1.70;63.56
10688;BME280;5392;42.688;23.298;2024-01-30T00:32:49;96817.28;;;-1.70;63.55
10688;BME280;5392;42.688;23.298;2024-01-30T00:35:15;96808.06;;;-1.71;63.85
10688;BME280;5392;42.688;23.298;2024-01-30T00:37:40;96816.69;;;-1.75;63.69
10688;BME280;5392;42.688;23.298;2024-01-30T00:40:06;96818.59;;;-1.79;64.11
10688;BME280;5392;42.688;23.298;2024-01-30T00:42:33;96816.28;;;-1.83;64.00
10688;BME280;5392;42.688;23.298;2024-01-30T00:44:58;96809.34;;;-1.80;63.81
10688;BME280;5392;42.688;23.298;2024-01-30T00:47:24;96811.00;;;-1.79;63.70
10688;BME280;5392;42.688;23.298;2024-01-30T00:49:49;96815.28;;;-1.81;63.43
10688;BME280;5392;42.688;23.298;2024-01-30T00:52:15;96819.03;;;-1.88;64.09
10688;BME280;5392;42.688;23.298;2024-01-30T00:54:41;96815.84;;;-1.91;64.55
10688;BME280;5392;42.688;23.298;2024-01-30T00:57:07;96812.44;;;-1.90;63.97
10688;BME280;5392;42.688;23.298;2024-01-30T00:59:32;96818.75;;;-1.99;64.70
10688;BME280;5392;42.688;23.298;2024-01-30T01:01:58;96811.69;;;-1.92;64.24
10688;BME280;5392;42.688;23.298;2024-01-30T01:04:23;96810.19;;;-1.96;64.71
10688;BME280;5392;42.688;23.298;2024-01-30T01:06:49;96821.28;;;-1.99;64.51
10688;BME280;5392;42.688;23.298;2024-01-30T01:09:14;96816.00;;;-1.94;64.32
10688;BME280;5392;42.688;23.298;2024-01-30T01:11:40;96816.38;;;-2.02;64.88
10688;BME280;5392;42.688;23.298;2024-01-30T01:14:05;96817.19;;;-2.01;64.83
10688;BME280;5392;42.688;23.298;2024-01-30T01:16:31;96813.34;;;-2.08;64.99
10688;BME280;5392;42.688;23.298;2024-01-30T01:18:56;96819.78;;;-2.03;64.51
10688;BME280;5392;42.688;23.298;2024-01-30T01:21:22;96815.50;;;-2.01;64.81
10688;BME280;5392;42.688;23.298;2024-01-30T01:23:48;96809.53;;;-2.00;64.44
10688;BME280;5392;42.688;23.298;2024-01-30T01:26:13;96818.81;;;-2.00;64.40
10688;BME280;5392;42.688;23.298;2024-01-30T01:28:40;96815.25;;;-1.96;64.38
10688;BME280;5392;42.688;23.298;2024-01-30T01:31:06;96810.69;;;-2.05;64.46
10688;BME280;5392;42.688;23.298;2024-01-30T01:33:32;96808.88;;;-2.03;64.40
10688;BME280;5392;42.688;23.298;2024-01-30T01:35:59;96814.72;;;-2.03;64.53
10688;BME280;5392;42.688;23.298;2024-01-30T01:38:24;96818.91;;;-2.02;64.29
10688;BME280;5392;42.688;23.298;2024-01-30T01:40:50;96822.16;;;-2.00;64.44
10688;BME280;5392;42.688;23.298;2024-01-30T01:43:16;96819.63;;;-2.00;64.47
10688;BME280;5392;42.688;23.298;2024-01-30T01:45:42;96816.28;;;-2.00;64.25
10688;BME280;5392;42.688;23.298;2024-01-30T01:48:08;96822.47;;;-2.06;64.70
10688;BME280;5392;42.688;23.298;2024-01-30T01:50:34;96814.91;;;-2.06;64.32
10688;BME280;5392;42.688;23.298;2024-01-30T01:53:01;96814.81;;;-2.04;64.54
10688;BME280;5392;42.688;23.298;2024-01-30T01:55:29;96817.84;;;-1.98;64.46
10688;BME280;5392;42.688;23.298;2024-01-30T01:57:56;96818.03;;;-2.01;64.08
10688;BME280;5392;42.688;23.298;2024-01-30T02:00:22;96819.63;;;-2.00;64.37
10688;BME280;5392;42.688;23.298;2024-01-30T02:02:49;96823.31;;;-2.05;64.36
10688;BME280;5392;42.688;23.298;2024-01-30T02:05:15;96821.53;;;-2.03;64.54
10688;BME280;5392;42.688;23.298;2024-01-30T02:07:42;96821.53;;;-2.03;64.12
10688;BME280;5392;42.688;23.298;2024-01-30T02:10:08;96829.88;;;-2.03;64.55
10688;BME280;5392;42.688;23.298;2024-01-30T02:12:35;96829.84;;;-2.01;64.01
10688;BME280;5392;42.688;23.298;2024-01-30T02:15:00;96831.41;;;-1.99;63.92
10688;BME280;5392;42.688;23.298;2024-01-30T02:17:26;96822.75;;;-1.95;63.72
10688;BME280;5392;42.688;23.298;2024-01-30T02:19:52;96827.09;;;-1.97;64.20
10688;BME280;5392;42.688;23.298;2024-01-30T02:22:19;96829.16;;;-1.88;63.62
10688;BME280;5392;42.688;23.298;2024-01-30T02:24:45;96832.19;;;-1.81;63.54
10688;BME280;5392;42.688;23.298;2024-01-30T02:27:11;96822.13;;;-1.83;63.13
10688;BME280;5392;42.688;23.298;2024-01-30T02:29:36;96816.09;;;-1.80;63.09
10688;BME280;5392;42.688;23.298;2024-01-30T02:32:02;96818.97;;;-1.86;62.44
10688;BME280;5392;42.688;23.298;2024-01-30T02:34:28;96810.22;;;-1.81;63.09
10688;BME280;5392;42.688;23.298;2024-01-30T02:36:53;96821.75;;;-1.75;63.42
10688;BME280;5392;42.688;23.298;2024-01-30T02:39:19;96820.09;;;-1.76;63.22
10688;BME280;5392;42.688;23.298;2024-01-30T02:41:45;96814.66;;;-1.69;62.69
10688;BME280;5392;42.688;23.298;2024-01-30T02:44:10;96824.69;;;-1.67;62.79
10688;BME280;5392;42.688;23.298;2024-01-30T02:46:37;96818.66;;;-1.65;62.62
10688;BME280;5392;42.688;23.298;2024-01-30T02:49:02;96815.41;;;-1.67;62.39
10688;BME280;5392;42.688;23.298;2024-01-30T02:51:28;96814.44;;;-1.64;62.16
10688;BME280;5392;42.688;23.298;2024-01-30T02:53:53;96814.22;;;-1.60;62.32
10688;BME280;5392;42.688;23.298;2024-01-30T02:56:19;96809.88;;;-1.58;62.60
10688;BME280;5392;42.688;23.298;2024-01-30T02:58:46;96814.69;;;-1.53;62.26
10688;BME280;5392;42.688;23.298;2024-01-30T03:01:11;96813.88;;;-1.54;62.40
10688;BME280;5392;42.688;23.298;2024-01-30T03:03:37;96813.97;;;-1.55;62.71
10688;BME280;5392;42.688;23.298;2024-01-30T03:06:02;96820.00;;;-1.58;62.44
10688;BME280;5392;42.688;23.298;2024-01-30T03:08:28;96808.88;;;-1.71;62.61
10688;BME280;5392;42.688;23.298;2024-01-30T03:10:54;96805.53;;;-1.71;62.77
10688;BME280;5392;42.688;23.298;2024-01-30T03:13:19;96803.50;;;-1.65;62.39
10688;BME280;5392;42.688;23.298;2024-01-30T03:15:45;96815.31;;;-1.65;62.38
10688;BME280;5392;42.688;23.298;2024-01-30T03:18:10;96799.34;;;-1.66;62.98
10688;BME280;5392;42.688;23.298;2024-01-30T03:20:36;96809.84;;;-1.73;63.14
10688;BME280;5392;42.688;23.298;2024-01-30T03:23:01;96812.06;;;-1.67;62.59
10688;BME280;5392;42.688;23.298;2024-01-30T03:25:28;96816.69;;;-1.75;62.03
10688;BME280;5392;42.688;23.298;2024-01-30T03:27:53;96819.09;;;-1.72;62.00
10688;BME280;5392;42.688;23.298;2024-01-30T03:30:18;96808.56;;;-1.65;61.44
10688;BME280;5392;42.688;23.298;2024-01-30T03:32:44;96810.84;;;-1.60;61.24
10688;BME280;5392;42.688;23.298;2024-01-30T03:35:11;96803.94;;;-1.57;61.03
10688;BME280;5392;42.688;23.298;2024-01-30T03:37:36;96803.22;;;-1.59;60.62
10688;BME280;5392;42.688;23.298;2024-01-30T03:40:02;96798.31;;;-1.62;61.40
10688;BME280;5392;42.688;23.298;2024-01-30T03:42:28;96802.88;;;-1.53;61.06
10688;BME280;5392;42.688;23.298;2024-01-30T03:44:54;96798.72;;;-1.54;60.48
10688;BME280;5392;42.688;23.298;2024-01-30T03:47:20;96796.03;;;-1.51;61.34
10688;BME280;5392;42.688;23.298;2024-01-30T03:49:46;96792.03;;;-1.55;60.16
10688;BME280;5392;42.688;23.298;2024-01-30T03:52:12;96788.69;;;-1.55;60.46
10688;BME280;5392;42.688;23.298;2024-01-30T03:54:37;96798.34;;;-1.79;61.70
10688;BME280;5392;42.688;23.298;2024-01-30T03:57:03;96797.38;;;-1.61;60.30
10688;BME280;5392;42.688;23.298;2024-01-30T03:59:29;96790.47;;;-1.57;60.56
10688;BME280;5392;42.688;23.298;2024-01-30T04:01:54;96787.78;;;-1.70;60.79
10688;BME280;5392;42.688;23.298;2024-01-30T04:04:20;96791.50;;;-1.77;60.38
10688;BME280;5392;42.688;23.298;2024-01-30T04:06:46;96792.97;;;-1.73;60.77
10688;BME280;5392;42.688;23.298;2024-01-30T04:09:15;96780.44;;;-1.74;60.81
10688;BME280;5392;42.688;23.298;2024-01-30T04:11:41;96788.41;;;-1.82;60.85
10688;BME280;5392;42.688;23.298;2024-01-30T04:14:07;96791.25;;;-1.88;61.08
10688;BME280;5392;42.688;23.298;2024-01-30T04:16:33;96800.72;;;-2.08;61.00
10688;BME280;5392;42.688;23.298;2024-01-30T04:19:00;96791.25;;;-2.05;61.23
10688;BME280;5392;42.688;23.298;2024-01-30T04:21:25;96795.69;;;-1.93;60.65
10688;BME280;5392;42.688;23.298;2024-01-30T04:23:51;96793.28;;;-2.11;61.38
10688;BME280;5392;42.688;23.298;2024-01-30T04:26:17;96792.16;;;-2.06;61.47
10688;BME280;5392;42.688;23.298;2024-01-30T04:28:45;96799.34;;;-1.98;60.92
10688;BME280;5392;42.688;23.298;2024-01-30T04:31:11;96797.56;;;-1.96;60.87
10688;BME280;5392;42.688;23.298;2024-01-30T04:33:36;96809.16;;;-1.92;60.73
10688;BME280;5392;42.688;23.298;2024-01-30T04:36:02;96798.00;;;-1.88;60.05
10688;BME280;5392;42.688;23.298;2024-01-30T04:38:29;96800.38;;;-1.85;59.72
10688;BME280;5392;42.688;23.298;2024-01-30T04:40:54;96805.91;;;-1.94;60.42
10688;BME280;5392;42.688;23.298;2024-01-30T04:43:20;96804.84;;;-1.90;60.68
10688;BME280;5392;42.688;23.298;2024-01-30T04:45:45;96813.47;;;-1.94;60.26
10688;BME280;5392;42.688;23.298;2024-01-30T04:48:11;96807.19;;;-1.87;60.57
10688;BME280;5392;42.688;23.298;2024-01-30T04:50:36;96809.38;;;-1.97;61.19
10688;BME280;5392;42.688;23.298;2024-01-30T04:53:02;96816.06;;;-1.96;60.78
10688;BME280;5392;42.688;23.298;2024-01-30T04:55:29;96827.88;;;-1.96;60.78
10688;BME280;5392;42.688;23.298;2024-01-30T04:57:55;96826.25;;;-1.97;60.74
10688;BME280;5392;42.688;23.298;2024-01-30T05:00:20;96831.31;;;-1.97;60.80
10688;BME280;5392;42.688;23.298;2024-01-30T05:02:46;96825.59;;;-2.01;61.11
10688;BME280;5392;42.688;23.298;2024-01-30T05:05:11;96833.31;;;-2.04;60.79
10688;BME280;5392;42.688;23.298;2024-01-30T05:07:36;96833.31;;;-2.04;61.55
10688;BME280;5392;42.688;23.298;2024-01-30T05:10:02;96832.88;;;-2.12;61.81
10688;BME280;5392;42.688;23.298;2024-01-30T05:12:28;96837.56;;;-2.22;62.27
10688;BME280;5392;42.688;23.298;2024-01-30T05:14:54;96825.00;;;-2.23;62.65
10688;BME280;5392;42.688;23.298;2024-01-30T05:17:19;96829.31;;;-2.25;62.91
10688;BME280;5392;42.688;23.298;2024-01-30T05:19:45;96836.22;;;-2.29;62.80
10688;BME280;5392;42.688;23.298;2024-01-30T05:22:10;96838.03;;;-2.31;63.29
10688;BME280;5392;42.688;23.298;2024-01-30T05:24:41;96838.03;;;-2.31;63.48
10688;BME280;5392;42.688;23.298;2024-01-30T05:27:06;96834.06;;;-2.36;63.52
10688;BME280;5392;42.688;23.298;2024-01-30T05:29:32;96837.84;;;-2.45;63.99
10688;BME280;5392;42.688;23.298;2024-01-30T05:31:57;96832.72;;;-2.43;63.94
10688;BME280;5392;42.688;23.298;2024-01-30T05:34:23;96835.63;;;-2.51;64.02
10688;BME280;5392;42.688;23.298;2024-01-30T05:36:48;96833.63;;;-2.44;63.47
10688;BME280;5392;42.688;23.298;2024-01-30T05:39:14;96829.09;;;-2.38;62.98
10688;BME280;5392;42.688;23.298;2024-01-30T05:41:39;96834.28;;;-2.41;63.58
10688;BME280;5392;42.688;23.298;2024-01-30T05:44:05;96836.69;;;-2.38;62.69
10688;BME280;5392;42.688;23.298;2024-01-30T05:46:30;96833.50;;;-2.41;62.89
10688;BME280;5392;42.688;23.298;2024-01-30T05:48:56;96833.31;;;-2.38;62.95
10688;BME280;5392;42.688;23.298;2024-01-30T05:51:21;96833.72;;;-2.46;63.44
10688;BME280;5392;42.688;23.298;2024-01-30T05:53:47;96838.53;;;-2.41;63.00
10688;BME280;5392;42.688;23.298;2024-01-30T05:56:12;96829.09;;;-2.38;63.08
10688;BME280;5392;42.688;23.298;2024-01-30T05:58:38;96840.97;;;-2.40;62.31
10688;BME280;5392;42.688;23.298;2024-01-30T06:01:07;96829.69;;;-2.33;62.00
10688;BME280;5392;42.688;23.298;2024-01-30T06:03:33;96832.97;;;-2.31;61.19
10688;BME280;5392;42.688;23.298;2024-01-30T06:05:59;96830.28;;;-2.28;60.60
10688;BME280;5392;42.688;23.298;2024-01-30T06:08:24;96827.31;;;-2.36;61.31
10688;BME280;5392;42.688;23.298;2024-01-30T06:10:50;96832.38;;;-2.36;61.57
10688;BME280;5392;42.688;23.298;2024-01-30T06:13:15;96844.25;;;-2.38;61.88
10688;BME280;5392;42.688;23.298;2024-01-30T06:15:41;96843.22;;;-2.34;61.64
10688;BME280;5392;42.688;23.298;2024-01-30T06:18:06;96846.31;;;-2.11;61.45
10688;BME280;5392;42.688;23.298;2024-01-30T06:20:32;96838.63;;;-1.43;59.45
10688;BME280;5392;42.688;23.298;2024-01-30T06:22:57;96840.09;;;-0.61;56.77
10688;BME280;5392;42.688;23.298;2024-01-30T06:25:23;96834.88;;;0.16;53.62
10688;BME280;5392;42.688;23.298;2024-01-30T06:27:49;96841.13;;;0.38;52.08
10688;BME280;5392;42.688;23.298;2024-01-30T06:30:14;96836.47;;;0.87;50.31
10688;BME280;5392;42.688;23.298;2024-01-30T06:32:40;96837.59;;;1.24;49.88
10688;BME280;5392;42.688;23.298;2024-01-30T06:35:05;96838.50;;;1.50;49.15
10688;BME280;5392;42.688;23.298;2024-01-30T06:37:31;96834.06;;;0.43;50.55
10688;BME280;5392;42.688;23.298;2024-01-30T06:39:57;96833.16;;;0.30;51.59
10688;BME280;5392;42.688;23.298;2024-01-30T06:42:22;96839.84;;;1.55;48.62
10688;BME280;5392;42.688;23.298;2024-01-30T06:44:48;96840.88;;;0.57;49.16
10688;BME280;5392;42.688;23.298;2024-01-30T06:47:13;96846.22;;;1.21;49.32
10688;BME280;5392;42.688;23.298;2024-01-30T06:49:39;96842.91;;;2.37;45.94
10688;BME280;5392;42.688;23.298;2024-01-30T06:52:05;96841.34;;;1.45;46.58
10688;BME280;5392;42.688;23.298;2024-01-30T06:54:32;96848.06;;;1.32;48.36
10688;BME280;5392;42.688;23.298;2024-01-30T06:56:58;96846.34;;;1.59;46.84
10688;BME280;5392;42.688;23.298;2024-01-30T06:59:24;96847.31;;;1.44;47.19
10688;BME280;5392;42.688;23.298;2024-01-30T07:01:50;96834.16;;;3.39;42.55
10688;BME280;5392;42.688;23.298;2024-01-30T07:04:15;96838.44;;;3.38;42.43
10688;BME280;5392;42.688;23.298;2024-01-30T07:06:42;96847.16;;;1.99;45.69
10688;BME280;5392;42.688;23.298;2024-01-30T07:09:08;96847.25;;;2.10;45.61
10688;BME280;5392;42.688;23.298;2024-01-30T07:11:36;96846.88;;;2.16;44.40
10688;BME280;5392;42.688;23.298;2024-01-30T07:14:02;96837.44;;;3.28;41.92
10688;BME280;5392;42.688;23.298;2024-01-30T07:16:30;96846.13;;;3.26;41.88
10688;BME280;5392;42.688;23.298;2024-01-30T07:18:56;96841.84;;;2.77;42.47
10688;BME280;5392;42.688;23.298;2024-01-30T07:21:22;96848.91;;;3.23;41.38
10688;BME280;5392;42.688;23.298;2024-01-30T07:23:53;96841.19;;;3.12;42.51
10688;BME280;5392;42.688;23.298;2024-01-30T07:26:19;96846.44;;;4.60;38.96
10688;BME280;5392;42.688;23.298;2024-01-30T07:28:45;96843.63;;;2.39;43.08
10688;BME280;5392;42.688;23.298;2024-01-30T07:31:10;96833.44;;;4.41;40.83
10688;BME280;5392;42.688;23.298;2024-01-30T07:33:36;96838.81;;;7.41;34.60
10688;BME280;5392;42.688;23.298;2024-01-30T07:36:01;96832.31;;;9.43;31.29
10688;BME280;5392;42.688;23.298;2024-01-30T07:38:27;96819.91;;;10.78;28.00
10688;BME280;5392;42.688;23.298;2024-01-30T07:40:52;96824.91;;;10.79;27.94
10688;BME280;5392;42.688;23.298;2024-01-30T07:43:18;96824.69;;;11.48;26.10
10688;BME280;5392;42.688;23.298;2024-01-30T07:45:45;96826.97;;;8.26;29.25
10688;BME280;5392;42.688;23.298;2024-01-30T07:48:10;96833.28;;;5.20;33.90
10688;BME280;5392;42.688;23.298;2024-01-30T07:50:36;96827.31;;;4.66;36.81
10688;BME280;5392;42.688;23.298;2024-01-30T07:53:02;96822.34;;;7.44;32.10
10688;BME280;5392;42.688;23.298;2024-01-30T07:55:27;96821.59;;;9.47;28.29
10688;BME280;5392;42.688;23.298;2024-01-30T07:57:54;96833.13;;;5.75;34.35
10688;BME280;5392;42.688;23.298;2024-01-30T08:00:20;96831.28;;;9.09;29.79
10688;BME280;5392;42.688;23.298;2024-01-30T08:02:46;96820.66;;;10.01;28.05
10688;BME280;5392;42.688;23.298;2024-01-30T08:05:11;96815.72;;;7.41;31.98
10688;BME280;5392;42.688;23.298;2024-01-30T08:07:37;96825.31;;;6.29;32.83
10688;BME280;5392;42.688;23.298;2024-01-30T08:10:03;96819.53;;;3.88;37.84
10688;BME280;5392;42.688;23.298;2024-01-30T08:12:29;96821.94;;;3.31;39.79
10688;BME280;5392;42.688;23.298;2024-01-30T08:14:54;96821.44;;;1.52;43.78
10688;BME280;5392;42.688;23.298;2024-01-30T08:17:20;96833.69;;;0.21;47.34
10688;BME280;5392;42.688;23.298;2024-01-30T08:19:45;96830.09;;;0.39;47.17
10688;BME280;5392;42.688;23.298;2024-01-30T08:22:12;96826.50;;;-0.15;49.44
10688;BME280;5392;42.688;23.298;2024-01-30T08:24:37;96835.41;;;0.21;49.18
10688;BME280;5392;42.688;23.298;2024-01-30T08:27:03;96834.59;;;0.34;48.33
10688;BME280;5392;42.688;23.298;2024-01-30T08:29:30;96832.88;;;0.07;48.55
10688;BME280;5392;42.688;23.298;2024-01-30T08:31:55;96842.50;;;0.58;48.37
10688;BME280;5392;42.688;23.298;2024-01-30T08:34:21;96836.78;;;0.54;47.73
10688;BME280;5392;42.688;23.298;2024-01-30T08:36:46;96834.28;;;-0.04;49.15
10688;BME280;5392;42.688;23.298;2024-01-30T08:39:13;96837.16;;;0.34;48.32
10688;BME280;5392;42.688;23.298;2024-01-30T08:41:38;96852.63;;;-0.44;50.70
10688;BME280;5392;42.688;23.298;2024-01-30T08:44:04;96843.13;;;0.19;49.45
10688;BME280;5392;42.688;23.298;2024-01-30T08:46:29;96849.75;;;0.22;49.18
10688;BME280;5392;42.688;23.298;2024-01-30T08:48:56;96842.75;;;0.25;48.60
10688;BME280;5392;42.688;23.298;2024-01-30T08:51:21;96846.47;;;0.20;49.45
10688;BME280;5392;42.688;23.298;2024-01-30T08:53:47;96849.63;;;0.23;50.11
10688;BME280;5392;42.688;23.298;2024-01-30T08:56:12;96845.22;;;0.27;49.76
10688;BME280;5392;42.688;23.298;2024-01-30T08:58:38;96857.25;;;0.51;49.14
10688;BME280;5392;42.688;23.298;2024-01-30T09:01:05;96870.31;;;0.45;49.39
10688;BME280;5392;42.688;23.298;2024-01-30T09:03:31;96858.44;;;0.18;51.03
10688;BME280;5392;42.688;23.298;2024-01-30T09:05:56;96858.63;;;0.29;50.70
10688;BME280;5392;42.688;23.298;2024-01-30T09:08:22;96851.03;;;0.71;49.89
10688;BME280;5392;42.688;23.298;2024-01-30T09:10:47;96864.47;;;1.14;50.11
10688;BME280;5392;42.688;23.298;2024-01-30T09:13:15;96861.88;;;1.28;49.67
10688;BME280;5392;42.688;23.298;2024-01-30T09:15:41;96859.72;;;1.22;49.31
10688;BME280;5392;42.688;23.298;2024-01-30T09:18:06;96848.00;;;1.33;49.81
10688;BME280;5392;42.688;23.298;2024-01-30T09:20:32;96843.97;;;1.03;50.97
10688;BME280;5392;42.688;23.298;2024-01-30T09:22:57;96852.25;;;0.92;50.79
10688;BME280;5392;42.688;23.298;2024-01-30T09:25:23;96846.91;;;0.40;51.47
10688;BME280;5392;42.688;23.298;2024-01-30T09:27:48;96838.69;;;0.79;51.29
10688;BME280;5392;42.688;23.298;2024-01-30T09:30:14;96833.88;;;0.60;51.75
10688;BME280;5392;42.688;23.298;2024-01-30T09:32:40;96821.72;;;0.65;52.17
10688;BME280;5392;42.688;23.298;2024-01-30T09:35:06;96834.59;;;0.34;52.08
10688;BME280;5392;42.688;23.298;2024-01-30T09:37:31;96829.81;;;0.30;52.11
10688;BME280;5392;42.688;23.298;2024-01-30T09:39:57;96820.03;;;0.24;52.35
10688;BME280;5392;42.688;23.298;2024-01-30T09:42:33;96831.06;;;0.09;53.01
10688;BME280;5392;42.688;23.298;2024-01-30T09:45:01;96834.34;;;-0.19;53.93
10688;BME280;5392;42.688;23.298;2024-01-30T09:47:27;96839.47;;;0.09;52.62
10688;BME280;5392;42.688;23.298;2024-01-30T09:49:53;96828.91;;;0.31;52.42
10688;BME280;5392;42.688;23.298;2024-01-30T09:52:18;96844.50;;;0.53;51.32
10688;BME280;5392;42.688;23.298;2024-01-30T09:54:45;96833.34;;;0.55;50.87
10688;BME280;5392;42.688;23.298;2024-01-30T09:57:11;96827.50;;;0.96;51.16
10688;BME280;5392;42.688;23.298;2024-01-30T09:59:37;96823.66;;;1.03;49.71
10688;BME280;5392;42.688;23.298;2024-01-30T10:02:02;96830.03;;;0.96;49.40
10688;BME280;5392;42.688;23.298;2024-01-30T10:04:30;96824.75;;;0.58;51.56
10688;BME280;5392;42.688;23.298;2024-01-30T10:06:56;96836.00;;;1.09;49.99
10688;BME280;5392;42.688;23.298;2024-01-30T10:09:21;96810.19;;;1.29;49.73
10688;BME280;5392;42.688;23.298;2024-01-30T10:11:48;96809.91;;;1.46;49.49
10688;BME280;5392;42.688;23.298;2024-01-30T10:14:15;96808.69;;;1.39;49.12
10688;BME280;5392;42.688;23.298;2024-01-30T10:16:40;96810.94;;;1.43;48.23
10688;BME280;5392;42.688;23.298;2024-01-30T10:19:06;96808.59;;;1.14;48.84
10688;BME280;5392;42.688;23.298;2024-01-30T10:21:31;96824.81;;;0.70;50.48
10688;BME280;5392;42.688;23.298;2024-01-30T10:23:57;96818.97;;;0.97;50.43
10688;BME280;5392;42.688;23.298;2024-01-30T10:26:23;96819.28;;;0.50;51.24
10688;BME280;5392;42.688;23.298;2024-01-30T10:28:48;96816.56;;;0.67;50.83
10688;BME280;5392;42.688;23.298;2024-01-30T10:31:17;96811.28;;;0.84;50.47
10688;BME280;5392;42.688;23.298;2024-01-30T10:33:44;96807.38;;;1.19;49.69
10688;BME280;5392;42.688;23.298;2024-01-30T10:36:13;96810.94;;;0.76;50.08
10688;BME280;5392;42.688;23.298;2024-01-30T10:38:42;96800.00;;;1.02;49.24
10688;BME280;5392;42.688;23.298;2024-01-30T10:41:08;96804.31;;;1.14;50.16
10688;BME280;5392;42.688;23.298;2024-01-30T10:43:41;96807.44;;;1.32;49.14
10688;BME280;5392;42.688;23.298;2024-01-30T10:46:19;96814.00;;;0.95;50.26
10688;BME280;5392;42.688;23.298;2024-01-30T10:48:58;96816.13;;;0.60;50.73
10688;BME280;5392;42.688;23.298;2024-01-30T10:51:26;96785.69;;;0.46;51.31
10688;BME280;5392;42.688;23.298;2024-01-30T10:53:52;96793.69;;;0.81;50.18
10688;BME280;5392;42.688;23.298;2024-01-30T10:56:22;96792.16;;;1.19;49.93
10688;BME280;5392;42.688;23.298;2024-01-30T10:58:50;96785.78;;;1.00;49.61
10688;BME280;5392;42.688;23.298;2024-01-30T11:01:23;96786.66;;;1.13;49.24
10688;BME280;5392;42.688;23.298;2024-01-30T11:03:53;96784.66;;;1.30;49.04
10688;BME280;5392;42.688;23.298;2024-01-30T11:06:23;96788.72;;;0.94;49.75
10688;BME280;5392;42.688;23.298;2024-01-30T11:09:10;96790.09;;;1.12;50.74
10688;BME280;5392;42.688;23.298;2024-01-30T11:11:56;96778.84;;;0.75;50.95
10688;BME280;5392;42.688;23.298;2024-01-30T11:14:27;96773.75;;;1.16;49.49
10688;BME280;5392;42.688;23.298;2024-01-30T11:16:57;96773.97;;;1.25;49.67
10688;BME280;5392;42.688;23.298;2024-01-30T11:19:24;96761.00;;;1.03;49.75
10688;BME280;5392;42.688;23.298;2024-01-30T11:21:53;96777.97;;;0.62;50.68
10688;BME280;5392;42.688;23.298;2024-01-30T11:24:28;96773.94;;;1.13;51.04
10688;BME280;5392;42.688;23.298;2024-01-30T11:26:58;96779.78;;;1.27;49.16
10688;BME280;5392;42.688;23.298;2024-01-30T11:29:27;96773.28;;;1.63;49.36
10688;BME280;5392;42.688;23.298;2024-01-30T11:31:57;96766.72;;;1.07;50.05
10688;BME280;5392;42.688;23.298;2024-01-30T11:34:24;96763.06;;;1.50;49.25
10688;BME280;5392;42.688;23.298;2024-01-30T11:37:11;96772.50;;;1.35;48.66
10688;BME280;5392;42.688;23.298;2024-01-30T11:39:37;96766.44;;;1.11;49.85
10688;BME280;5392;42.688;23.298;2024-01-30T11:42:03;96764.06;;;1.35;49.11
10688;BME280;5392;42.688;23.298;2024-01-30T11:44:30;96766.50;;;1.36;49.23
10688;BME280;5392;42.688;23.298;2024-01-30T11:46:56;96763.09;;;1.23;49.54
10688;BME280;5392;42.688;23.298;2024-01-30T11:49:23;96764.94;;;1.21;49.66
10688;BME280;5392;42.688;23.298;2024-01-30T11:51:49;96762.56;;;1.18;50.52
10688;BME280;5392;42.688;23.298;2024-01-30T11:54:15;96772.72;;;1.18;50.16
10688;BME280;5392;42.688;23.298;2024-01-30T11:56:41;96755.63;;;1.08;50.02
10688;BME280;5392;42.688;23.298;2024-01-30T11:59:07;96764.78;;;1.10;50.12
10688;BME280;5392;42.688;23.298;2024-01-30T12:01:32;96746.78;;;1.01;50.51
10688;BME280;5392;42.688;23.298;2024-01-30T12:03:59;96748.13;;;0.80;51.19
10688;BME280;5392;42.688;23.298;2024-01-30T12:06:25;96754.25;;;0.49;52.15
10688;BME280;5392;42.688;23.298;2024-01-30T12:08:57;96744.22;;;0.33;52.97
10688;BME280;5392;42.688;23.298;2024-01-30T12:11:23;96732.88;;;0.53;52.77
10688;BME280;5392;42.688;23.298;2024-01-30T12:13:50;96722.75;;;0.65;52.78
10688;BME280;5392;42.688;23.298;2024-01-30T12:16:16;96718.97;;;0.85;51.64
10688;BME280;5392;42.688;23.298;2024-01-30T12:18:41;96724.03;;;0.72;51.75
10688;BME280;5392;42.688;23.298;2024-01-30T12:21:07;96719.69;;;0.60;52.34
10688;BME280;5392;42.688;23.298;2024-01-30T12:23:35;96720.81;;;0.83;51.68
10688;BME280;5392;42.688;23.298;2024-01-30T12:26:01;96715.25;;;0.64;51.66
10688;BME280;5392;42.688;23.298;2024-01-30T12:28:33;96718.38;;;0.41;52.19
10688;BME280;5392;42.688;23.298;2024-01-30T12:31:02;96714.97;;;0.68;51.87
10688;BME280;5392;42.688;23.298;2024-01-30T12:33:28;96712.19;;;0.86;50.74
10688;BME280;5392;42.688;23.298;2024-01-30T12:35:54;96710.06;;;0.65;51.84
10688;BME280;5392;42.688;23.298;2024-01-30T12:38:20;96715.28;;;0.50;51.79
10688;BME280;5392;42.688;23.298;2024-01-30T12:40:45;96709.09;;;0.54;51.83
10688;BME280;5392;42.688;23.298;2024-01-30T12:43:13;96707.38;;;0.54;51.79
10688;BME280;5392;42.688;23.298;2024-01-30T12:45:39;96713.69;;;0.76;51.50
10688;BME280;5392;42.688;23.298;2024-01-30T12:48:05;96698.78;;;0.57;51.97
10688;BME280;5392;42.688;23.298;2024-01-30T12:50:30;96706.78;;;0.78;51.01
10688;BME280;5392;42.688;23.298;2024-01-30T12:52:56;96702.47;;;0.92;50.95
10688;BME280;5392;42.688;23.298;2024-01-30T12:55:21;96694.94;;;0.91;51.37
10688;BME280;5392;42.688;23.298;2024-01-30T12:57:47;96698.53;;;1.01;49.95
10688;BME280;5392;42.688;23.298;2024-01-30T13:00:13;96687.56;;;1.00;50.26